Time;durP1;ratioP1;P1;durP2;ratioP2;P2;SDS_P1;SDS_P2;PMS_P1;PMS_P2;Temp;Humidity;BMP_temperature;BMP_pressure;BME280_temperature;BME280_humidity;BME280_pressure;Samples;Min_cycle;Max_cycle;Signal;HPM_P1;HPM_P2
2024/02/29 00:00:06;;;;;;;20.75;13.80;;;;;;;;;;10368936;28;20093;-68
2024/02/29 00:05:05;;;;;;;16.30;12.52;;;;;;;;;;10371102;28;20077;-66
2024/02/29 00:10:04;;;;;;;23.08;12.82;;;;;;;;;;10369074;28;20087;-66
2024/02/29 00:15:02;;;;;;;16.75;12.00;;;;;;;;;;10371275;28;20084;-66
2024/02/29 00:20:02;;;;;;;17.70;11.80;;;;;;;;;;10368315;28;20071;-67
2024/02/29 00:25:01;;;;;;;15.05;11.02;;;;;;;;;;10370811;28;20072;-67
2024/02/29 00:29:59;;;;;;;22.50;11.77;;;;;;;;;;10367426;28;20084;-67
2024/02/29 00:34:58;;;;;;;15.40;11.57;;;;;;;;;;10367792;28;20094;-67
2024/02/29 00:39:58;;;;;;;13.27;10.30;;;;;;;;;;10369476;28;20071;-68
2024/02/29 00:44:56;;;;;;;18.48;10.38;;;;;;;;;;10370817;28;20480;-68
2024/02/29 00:49:54;;;;;;;16.92;10.10;;;;;;;;;;10367815;28;20071;-67
2024/02/29 00:54:53;;;;;;;19.77;10.82;;;;;;;;;;10371648;28;20581;-68
2024/02/29 00:59:52;;;;;;;18.88;11.60;;;;;;;;;;10366174;28;20079;-68
2024/02/29 01:04:51;;;;;;;20.98;12.15;;;;;;;;;;10367733;28;20071;-67
2024/02/29 01:09:49;;;;;;;18.38;11.15;;;;;;;;;;10363737;28;20068;-68
2024/02/29 01:14:48;;;;;;;19.33;11.43;;;;;;;;;;10364786;28;20509;-67
2024/02/29 01:19:47;;;;;;;17.92;10.73;;;;;;;;;;10372067;28;20067;-67
2024/02/29 01:24:46;;;;;;;23.02;12.57;;;;;;;;;;10377615;28;20079;-68
2024/02/29 01:29:44;;;;;;;18.08;11.88;;;;;;;;;;10354523;28;20083;-68
2024/02/29 01:34:43;;;;;;;18.45;11.93;;;;;;;;;;10373905;28;20153;-67
2024/02/29 01:39:42;;;;;;;18.88;11.82;;;;;;;;;;10378249;28;20068;-67
2024/02/29 01:44:46;;;;;;;17.20;12.57;;;;;;;;;;10372835;28;20071;-68
2024/02/29 01:49:46;;;;;;;17.00;13.43;;;;;;;;;;10374113;28;20074;-68
2024/02/29 01:54:46;;;;;;;21.30;13.40;;;;;;;;;;10373381;28;20079;-69
2024/02/29 01:59:46;;;;;;;18.40;12.50;;;;;;;;;;10365290;28;20083;-68
2024/02/29 02:04:44;;;;;;;17.45;10.77;;;;;;;;;;10372259;28;20067;-68
2024/02/29 02:09:45;;;;;;;24.13;15.43;;;;;;;;;;10375770;28;20068;-68
2024/02/29 02:14:45;;;;;;;22.00;14.07;;;;;;;;;;10373612;28;20078;-68
2024/02/29 02:19:43;;;;;;;18.42;12.85;;;;;;;;;;10372246;28;20087;-68
2024/02/29 02:24:43;;;;;;;26.10;18.42;;;;;;;;;;10369081;28;20082;-68
2024/02/29 02:29:41;;;;;;;22.85;16.05;;;;;;;;;;10373086;28;20067;-68
2024/02/29 02:34:39;;;;;;;30.05;17.23;;;;;;;;;;10370761;28;20516;-67
2024/02/29 02:39:38;;;;;;;22.15;15.50;;;;;;;;;;10371801;28;20464;-68
2024/02/29 02:44:38;;;;;;;17.60;12.65;;;;;;;;;;10371866;28;20070;-69
2024/02/29 02:49:38;;;;;;;17.77;14.13;;;;;;;;;;10372915;28;20543;-68
2024/02/29 02:54:38;;;;;;;22.30;13.55;;;;;;;;;;10371109;28;20071;-67
2024/02/29 02:59:36;;;;;;;19.65;13.20;;;;;;;;;;10366495;28;20474;-67
2024/02/29 03:04:35;;;;;;;17.55;11.45;;;;;;;;;;10371399;28;20083;-67
2024/02/29 03:09:34;;;;;;;17.77;12.75;;;;;;;;;;10369838;28;20079;-67
2024/02/29 03:14:32;;;;;;;18.88;12.38;;;;;;;;;;10371391;28;20448;-67
2024/02/29 03:19:30;;;;;;;16.23;10.93;;;;;;;;;;10366437;28;20060;-68
2024/02/29 03:24:30;;;;;;;14.98;11.18;;;;;;;;;;10376751;28;20173;-67
2024/02/29 03:29:29;;;;;;;15.88;12.95;;;;;;;;;;10369911;28;20521;-67
2024/02/29 03:34:27;;;;;;;19.23;11.23;;;;;;;;;;10369169;28;20103;-67
2024/02/29 03:39:26;;;;;;;14.63;11.85;;;;;;;;;;10370513;28;20070;-67
2024/02/29 03:44:25;;;;;;;15.70;12.52;;;;;;;;;;10370375;28;20078;-67
2024/02/29 03:49:23;;;;;;;14.82;12.02;;;;;;;;;;10372179;28;20285;-66
2024/02/29 03:54:22;;;;;;;11.70;10.57;;;;;;;;;;10369799;28;20491;-66
2024/02/29 03:59:20;;;;;;;15.32;11.93;;;;;;;;;;10372087;28;20098;-66
2024/02/29 04:04:21;;;;;;;16.50;12.63;;;;;;;;;;10368224;28;20067;-66
2024/02/29 04:09:20;;;;;;;15.20;11.65;;;;;;;;;;10361865;28;20080;-67
2024/02/29 04:14:18;;;;;;;17.15;13.20;;;;;;;;;;10369975;28;20082;-67
2024/02/29 04:19:16;;;;;;;20.08;12.35;;;;;;;;;;10367507;28;20067;-67
2024/02/29 04:24:16;;;;;;;31.88;12.70;;;;;;;;;;10372363;28;20063;-66
2024/02/29 04:29:14;;;;;;;14.30;11.40;;;;;;;;;;10367838;28;20059;-66
2024/02/29 04:34:13;;;;;;;11.27;10.13;;;;;;;;;;10372531;28;20068;-67
2024/02/29 04:39:11;;;;;;;18.23;12.23;;;;;;;;;;10367087;28;20078;-66
2024/02/29 04:44:11;;;;;;;15.25;10.68;;;;;;;;;;10368543;28;20064;-67
2024/02/29 04:49:09;;;;;;;22.17;10.70;;;;;;;;;;10371119;28;20070;-68
2024/02/29 04:54:07;;;;;;;10.48;9.48;;;;;;;;;;10374407;28;20508;-68
2024/02/29 04:59:07;;;;;;;22.65;9.95;;;;;;;;;;10373967;28;20476;-67
2024/02/29 05:04:06;;;;;;;19.35;13.27;;;;;;;;;;10375883;28;20071;-67
2024/02/29 05:09:06;;;;;;;14.00;10.50;;;;;;;;;;10378840;28;20114;-65
2024/02/29 05:14:05;;;;;;;12.88;8.90;;;;;;;;;;10378552;28;20087;-66
2024/02/29 05:19:03;;;;;;;12.02;10.32;;;;;;;;;;10374676;28;20087;-66
2024/02/29 05:24:03;;;;;;;9.90;8.98;;;;;;;;;;10374448;28;20099;-68
2024/02/29 05:29:01;;;;;;;9.45;8.50;;;;;;;;;;10375737;28;20074;-65
2024/02/29 05:33:59;;;;;;;12.93;11.65;;;;;;;;;;10375163;28;20493;-66
2024/02/29 05:38:58;;;;;;;10.70;9.68;;;;;;;;;;10378716;28;20070;-66
2024/02/29 05:43:57;;;;;;;12.30;11.00;;;;;;;;;;10375714;28;20079;-66
2024/02/29 05:48:57;;;;;;;11.80;10.60;;;;;;;;;;10372930;28;20066;-66
2024/02/29 05:53:55;;;;;;;12.45;10.07;;;;;;;;;;10370224;28;20075;-66
2024/02/29 05:58:54;;;;;;;14.02;11.55;;;;;;;;;;10373158;28;20079;-66
2024/02/29 06:03:55;;;;;;;14.55;11.35;;;;;;;;;;10377761;28;20089;-66
2024/02/29 06:08:53;;;;;;;23.30;13.88;;;;;;;;;;10389337;28;20071;-67
2024/02/29 06:13:51;;;;;;;13.70;11.95;;;;;;;;;;10373356;28;20090;-67
2024/02/29 06:18:50;;;;;;;15.23;12.73;;;;;;;;;;10391278;28;20064;-66
2024/02/29 06:23:49;;;;;;;19.23;15.02;;;;;;;;;;10376976;28;20535;-65
2024/02/29 06:28:51;;;;;;;14.98;11.98;;;;;;;;;;10375001;28;20060;-66
2024/02/29 06:33:49;;;;;;;18.55;12.25;;;;;;;;;;10375782;28;20075;-65
2024/02/29 06:38:47;;;;;;;14.90;12.13;;;;;;;;;;10371641;28;20059;-66
2024/02/29 06:43:47;;;;;;;14.85;13.23;;;;;;;;;;10375845;28;20076;-66
2024/02/29 06:48:45;;;;;;;28.25;16.30;;;;;;;;;;10372688;28;20063;-66
2024/02/29 06:53:43;;;;;;;27.05;15.25;;;;;;;;;;10376124;28;20086;-66
2024/02/29 06:58:42;;;;;;;24.70;14.55;;;;;;;;;;10378645;28;20086;-67
2024/02/29 07:03:42;;;;;;;19.73;14.68;;;;;;;;;;10372622;28;20086;-66
2024/02/29 07:08:40;;;;;;;12.32;11.13;;;;;;;;;;10378347;28;20071;-66
2024/02/29 07:13:38;;;;;;;12.45;11.15;;;;;;;;;;10377135;28;20068;-66
2024/02/29 07:18:37;;;;;;;18.17;10.60;;;;;;;;;;10364126;28;20079;-66
2024/02/29 07:23:37;;;;;;;13.57;11.50;;;;;;;;;;10372935;28;20071;-66
2024/02/29 07:28:35;;;;;;;17.02;12.65;;;;;;;;;;10369703;28;20072;-66
2024/02/29 07:33:35;;;;;;;16.13;11.90;;;;;;;;;;10367992;28;20071;-65
2024/02/29 07:38:33;;;;;;;12.68;11.40;;;;;;;;;;10365505;28;20059;-66
2024/02/29 07:43:33;;;;;;;13.65;12.32;;;;;;;;;;10369743;28;20063;-65
2024/02/29 07:48:31;;;;;;;18.10;15.05;;;;;;;;;;10370090;28;20074;-65
2024/02/29 07:53:30;;;;;;;13.95;12.35;;;;;;;;;;10369138;28;20079;-66
2024/02/29 07:58:28;;;;;;;12.73;11.50;;;;;;;;;;10369884;28;20072;-65
2024/02/29 08:03:28;;;;;;;13.80;12.43;;;;;;;;;;10371632;28;20079;-66
2024/02/29 08:08:26;;;;;;;14.15;12.75;;;;;;;;;;10368518;28;20093;-65
2024/02/29 08:13:24;;;;;;;15.07;13.20;;;;;;;;;;10369342;28;20068;-66
2024/02/29 08:18:23;;;;;;;13.68;12.02;;;;;;;;;;10367759;28;20078;-65
2024/02/29 08:23:22;;;;;;;13.50;12.10;;;;;;;;;;10370038;28;20067;-65
2024/02/29 08:28:20;;;;;;;19.00;16.30;;;;;;;;;;10372003;28;20071;-66
2024/02/29 08:33:19;;;;;;;17.45;12.93;;;;;;;;;;10376215;28;20634;-64
2024/02/29 08:38:17;;;;;;;18.67;16.30;;;;;;;;;;10375911;28;20668;-65
2024/02/29 08:43:19;;;;;;;15.85;14.25;;;;;;;;;;10380531;28;20063;-65
2024/02/29 08:48:17;;;;;;;17.80;15.73;;;;;;;;;;10377309;28;20083;-65
2024/02/29 08:53:16;;;;;;;18.85;15.18;;;;;;;;;;10375055;28;20067;-66
2024/02/29 08:58:14;;;;;;;14.95;12.98;;;;;;;;;;10368741;28;20078;-67
2024/02/29 09:03:14;;;;;;;16.08;14.38;;;;;;;;;;10372556;28;20089;-65
2024/02/29 09:08:12;;;;;;;19.33;15.45;;;;;;;;;;10372378;28;20079;-65
2024/02/29 09:13:11;;;;;;;14.85;13.35;;;;;;;;;;10374659;28;20063;-65
2024/02/29 09:18:28;;;;;;;18.15;14.85;;;;;;;;;;10372849;28;20072;-65
2024/02/29 09:23:28;;;;;;;19.65;17.17;;;;;;;;;;10371948;28;20120;-64
2024/02/29 09:28:28;;;;;;;20.20;15.95;;;;;;;;;;10376473;28;20068;-64
2024/02/29 09:33:26;;;;;;;25.70;17.52;;;;;;;;;;10376304;28;20071;-63
2024/02/29 09:38:27;;;;;;;18.85;16.48;;;;;;;;;;10372584;28;20085;-64
2024/02/29 09:43:27;;;;;;;21.50;17.83;;;;;;;;;;10373018;28;20088;-64
2024/02/29 09:48:25;;;;;;;20.30;18.17;;;;;;;;;;10374502;28;20067;-64
2024/02/29 09:53:24;;;;;;;22.20;16.73;;;;;;;;;;10374209;28;20491;-65
2024/02/29 09:58:24;;;;;;;22.17;17.67;;;;;;;;;;10332900;28;1129156;-65
2024/02/29 10:03:22;;;;;;;27.00;21.98;;;;;;;;;;10378253;28;20064;-64
2024/02/29 10:08:21;;;;;;;24.30;19.52;;;;;;;;;;10375207;28;20126;-64
2024/02/29 10:13:19;;;;;;;26.08;20.55;;;;;;;;;;10367994;28;20040;-66
2024/02/29 10:18:19;;;;;;;23.13;18.05;;;;;;;;;;10375335;28;20063;-65
2024/02/29 10:23:17;;;;;;;36.95;20.50;;;;;;;;;;10377605;28;20419;-65
2024/02/29 10:28:15;;;;;;;34.30;25.85;;;;;;;;;;10356854;28;20044;-65
2024/02/29 10:33:14;;;;;;;27.02;22.38;;;;;;;;;;10376009;28;20437;-65
2024/02/29 10:38:14;;;;;;;20.20;17.92;;;;;;;;;;10374035;28;20074;-64
2024/02/29 10:43:13;;;;;;;19.70;16.98;;;;;;;;;;10376334;28;20063;-65
2024/02/29 10:48:16;;;;;;;26.35;21.02;;;;;;;;;;10360216;28;20078;-65
2024/02/29 10:53:19;;;;;;;24.80;19.48;;;;;;;;;;10371960;28;20067;-64
2024/02/29 10:58:22;;;;;;;25.67;18.92;;;;;;;;;;10370294;28;20056;-65
2024/02/29 11:03:22;;;;;;;41.50;28.23;;;;;;;;;;10375799;28;20063;-66
2024/02/29 11:08:22;;;;;;;24.17;16.58;;;;;;;;;;10371219;28;20036;-65
2024/02/29 11:13:21;;;;;;;19.50;16.27;;;;;;;;;;10363880;28;20078;-66
2024/02/29 11:18:23;;;;;;;23.45;18.98;;;;;;;;;;10377023;28;20094;-65
2024/02/29 11:23:29;;;;;;;22.67;18.27;;;;;;;;;;10371367;28;20075;-65
2024/02/29 11:28:36;;;;;;;32.47;21.60;;;;;;;;;;10371128;28;20448;-65
2024/02/29 11:33:34;;;;;;;23.20;17.85;;;;;;;;;;10373073;28;20070;-65
2024/02/29 11:38:35;;;;;;;25.33;19.83;;;;;;;;;;10370700;28;20085;-65
2024/02/29 11:43:38;;;;;;;22.13;18.13;;;;;;;;;;10369025;28;20068;-64
2024/02/29 11:48:37;;;;;;;26.27;17.40;;;;;;;;;;10374137;28;20060;-65
2024/02/29 11:53:38;;;;;;;24.02;16.60;;;;;;;;;;10366214;28;20519;-64
2024/02/29 11:58:37;;;;;;;20.25;16.15;;;;;;;;;;10371114;28;20068;-65
2024/02/29 12:03:35;;;;;;;21.20;18.38;;;;;;;;;;10371800;28;20082;-65
2024/02/29 12:08:34;;;;;;;21.48;17.08;;;;;;;;;;10362935;28;20048;-64
2024/02/29 12:13:34;;;;;;;19.48;16.70;;;;;;;;;;10372580;28;20071;-64
2024/02/29 12:18:34;;;;;;;21.40;15.23;;;;;;;;;;10354202;28;20078;-66
2024/02/29 12:23:32;;;;;;;29.73;18.33;;;;;;;;;;10372518;28;20075;-64
2024/02/29 12:28:31;;;;;;;20.52;18.08;;;;;;;;;;10371361;28;20067;-67
2024/02/29 12:33:31;;;;;;;19.45;16.70;;;;;;;;;;10370847;28;20075;-68
2024/02/29 12:38:31;;;;;;;23.63;18.88;;;;;;;;;;10372166;28;20082;-68
2024/02/29 12:43:30;;;;;;;20.75;17.35;;;;;;;;;;10356409;28;20106;-68
2024/02/29 12:48:29;;;;;;;26.63;18.80;;;;;;;;;;10369466;28;20071;-68
2024/02/29 12:53:29;;;;;;;23.02;18.27;;;;;;;;;;10370857;28;20063;-69
2024/02/29 12:58:27;;;;;;;25.17;18.45;;;;;;;;;;10371489;28;20550;-68
2024/02/29 13:03:25;;;;;;;24.50;18.23;;;;;;;;;;10369812;28;20094;-69
2024/02/29 13:08:23;;;;;;;26.42;19.45;;;;;;;;;;10372067;28;20469;-67
2024/02/29 13:13:23;;;;;;;24.95;18.23;;;;;;;;;;10352145;28;20072;-67
2024/02/29 13:18:22;;;;;;;20.73;17.95;;;;;;;;;;10375186;28;20506;-67
2024/02/29 13:23:20;;;;;;;22.55;17.17;;;;;;;;;;10384764;28;20070;-67
2024/02/29 13:28:18;;;;;;;26.27;20.60;;;;;;;;;;10377052;28;20063;-67
2024/02/29 13:33:18;;;;;;;19.65;17.65;;;;;;;;;;10368880;28;20075;-66
2024/02/29 13:38:16;;;;;;;21.70;17.85;;;;;;;;;;10377585;28;20148;-67
2024/02/29 13:43:15;;;;;;;22.23;16.77;;;;;;;;;;10375370;28;20093;-67
2024/02/29 13:48:13;;;;;;;21.67;15.43;;;;;;;;;;10357827;28;20393;-67
2024/02/29 13:53:13;;;;;;;18.95;16.73;;;;;;;;;;10376049;28;20060;-66
2024/02/29 13:58:11;;;;;;;18.80;16.48;;;;;;;;;;10367304;28;20076;-66
2024/02/29 14:03:11;;;;;;;18.33;16.50;;;;;;;;;;10375795;28;20550;-68
2024/02/29 14:08:09;;;;;;;24.75;20.92;;;;;;;;;;10372660;28;20055;-66
2024/02/29 14:13:09;;;;;;;21.27;18.85;;;;;;;;;;10374487;28;20062;-65
2024/02/29 14:18:08;;;;;;;19.05;17.05;;;;;;;;;;10374067;28;20087;-65
2024/02/29 14:23:07;;;;;;;21.02;15.15;;;;;;;;;;10374338;28;20063;-66
2024/02/29 14:28:06;;;;;;;38.47;19.35;;;;;;;;;;10376155;28;20079;-66
2024/02/29 14:33:06;;;;;;;21.10;16.55;;;;;;;;;;10372111;28;20071;-66
2024/02/29 14:38:05;;;;;;;31.13;16.63;;;;;;;;;;10373486;28;20453;-66
2024/02/29 14:43:04;;;;;;;26.10;18.80;;;;;;;;;;10375495;28;20075;-65
2024/02/29 14:48:03;;;;;;;94.72;27.75;;;;;;;;;;10374528;28;20516;-66
2024/02/29 14:53:03;;;;;;;20.08;15.20;;;;;;;;;;10373023;28;20067;-66
2024/02/29 14:58:01;;;;;;;18.95;16.83;;;;;;;;;;10374441;28;20088;-66
2024/02/29 15:02:59;;;;;;;16.92;14.68;;;;;;;;;;10368039;28;20079;-66
2024/02/29 15:08:00;;;;;;;18.15;16.00;;;;;;;;;;10373732;28;20090;-65
2024/02/29 15:13:00;;;;;;;19.83;15.32;;;;;;;;;;10375281;28;20075;-65
2024/02/29 15:17:59;;;;;;;18.55;15.52;;;;;;;;;;10355406;28;20086;-66
2024/02/29 15:22:57;;;;;;;18.92;16.77;;;;;;;;;;10372307;28;20550;-68
2024/02/29 15:27:56;;;;;;;20.25;17.85;;;;;;;;;;10372984;28;20075;-66
2024/02/29 15:32:56;;;;;;;19.30;16.30;;;;;;;;;;10369179;28;20071;-67
2024/02/29 15:37:55;;;;;;;21.90;18.30;;;;;;;;;;10374090;28;20075;-67
2024/02/29 15:42:53;;;;;;;24.52;18.55;;;;;;;;;;10371958;28;20097;-68
2024/02/29 15:47:51;;;;;;;19.83;17.67;;;;;;;;;;10374757;28;20082;-70
2024/02/29 15:52:54;;;;;;;29.35;21.15;;;;;;;;;;10370175;28;20071;-68
2024/02/29 15:57:53;;;;;;;20.45;17.35;;;;;;;;;;10372262;28;20075;-68
2024/02/29 16:02:51;;;;;;;28.63;21.70;;;;;;;;;;10366532;28;20082;-67
2024/02/29 16:07:51;;;;;;;38.53;27.20;;;;;;;;;;10361517;28;20067;-67
2024/02/29 16:12:52;;;;;;;108.80;77.13;;;;;;;;;;10371784;28;20060;-68
2024/02/29 16:17:52;;;;;;;64.85;46.78;;;;;;;;;;10372671;28;20079;-68
2024/02/29 16:22:51;;;;;;;26.35;22.23;;;;;;;;;;10372772;28;20071;-68
2024/02/29 16:27:50;;;;;;;31.13;26.13;;;;;;;;;;10370798;28;20075;-68
2024/02/29 16:32:49;;;;;;;25.80;19.80;;;;;;;;;;10373378;28;20098;-69
2024/02/29 16:37:47;;;;;;;24.52;19.48;;;;;;;;;;10369243;28;20072;-68
2024/02/29 16:42:47;;;;;;;22.17;17.20;;;;;;;;;;10371154;28;20068;-69
2024/02/29 16:47:45;;;;;;;20.85;17.98;;;;;;;;;;10370638;28;20082;-68
2024/02/29 16:52:44;;;;;;;22.85;17.17;;;;;;;;;;10380676;28;20067;-68
2024/02/29 16:57:42;;;;;;;60.47;37.92;;;;;;;;;;10378400;28;20094;-68
2024/02/29 17:02:43;;;;;;;49.08;34.75;;;;;;;;;;10377653;28;20082;-69
2024/02/29 17:07:43;;;;;;;95.72;60.83;;;;;;;;;;10378713;28;20067;-68
2024/02/29 17:12:41;;;;;;;42.90;32.03;;;;;;;;;;10380131;28;20069;-68
2024/02/29 17:17:40;;;;;;;73.28;48.40;;;;;;;;;;10378866;28;20137;-68
2024/02/29 17:22:42;;;;;;;35.75;27.65;;;;;;;;;;10378205;28;20046;-67
2024/02/29 17:27:40;;;;;;;23.80;17.92;;;;;;;;;;10354192;28;20048;-67
2024/02/29 17:32:39;;;;;;;19.65;17.50;;;;;;;;;;10381992;28;20044;-68
2024/02/29 17:37:37;;;;;;;32.10;23.05;;;;;;;;;;10373447;28;20534;-68
2024/02/29 17:42:37;;;;;;;19.40;16.70;;;;;;;;;;10376494;28;20070;-67
2024/02/29 17:47:35;;;;;;;32.22;25.70;;;;;;;;;;10375599;28;20059;-67
2024/02/29 17:52:34;;;;;;;19.42;17.15;;;;;;;;;;10377631;28;20460;-68
2024/02/29 17:57:32;;;;;;;20.85;16.13;;;;;;;;;;10376447;28;20075;-68
2024/02/29 18:02:32;;;;;;;22.00;17.00;;;;;;;;;;10374778;28;20473;-67
2024/02/29 18:07:30;;;;;;;21.63;16.58;;;;;;;;;;10376179;28;20063;-67
2024/02/29 18:12:30;;;;;;;22.70;18.30;;;;;;;;;;10378063;28;20123;-68
2024/02/29 18:17:28;;;;;;;27.63;22.13;;;;;;;;;;10357886;28;20075;-68
2024/02/29 18:22:28;;;;;;;27.83;21.00;;;;;;;;;;10373742;28;20064;-69
2024/02/29 18:27:26;;;;;;;24.75;20.23;;;;;;;;;;10370044;28;20075;-69
2024/02/29 18:32:25;;;;;;;20.08;17.10;;;;;;;;;;10373770;28;20071;-68
2024/02/29 18:37:24;;;;;;;19.23;17.08;;;;;;;;;;10375356;28;20078;-69
2024/02/29 18:42:24;;;;;;;20.98;18.73;;;;;;;;;;10375257;28;20067;-67
2024/02/29 18:47:22;;;;;;;24.67;19.23;;;;;;;;;;10372189;28;20432;-68
2024/02/29 18:52:21;;;;;;;29.25;19.17;;;;;;;;;;10374992;28;20060;-66
2024/02/29 18:57:19;;;;;;;26.38;19.08;;;;;;;;;;10373696;28;20060;-67
2024/02/29 19:02:19;;;;;;;25.25;20.35;;;;;;;;;;10372677;28;20071;-64
2024/02/29 19:07:17;;;;;;;27.63;19.05;;;;;;;;;;10382938;28;20059;-66
2024/02/29 19:12:16;;;;;;;23.13;19.67;;;;;;;;;;10377140;28;20079;-66
2024/02/29 19:17:14;;;;;;;22.98;20.17;;;;;;;;;;10373301;28;20079;-66
2024/02/29 19:22:14;;;;;;;25.45;19.65;;;;;;;;;;10374707;28;20067;-66
2024/02/29 19:27:12;;;;;;;38.92;21.27;;;;;;;;;;10375828;28;20075;-67
2024/02/29 19:32:10;;;;;;;30.23;22.15;;;;;;;;;;10375904;28;20475;-66
2024/02/29 19:37:09;;;;;;;31.00;22.40;;;;;;;;;;10373991;28;20055;-66
2024/02/29 19:42:10;;;;;;;24.30;20.38;;;;;;;;;;10373689;28;20074;-67
2024/02/29 19:47:08;;;;;;;35.03;26.88;;;;;;;;;;10377159;28;20074;-65
2024/02/29 19:52:06;;;;;;;27.45;21.10;;;;;;;;;;10371142;28;20071;-65
2024/02/29 19:57:05;;;;;;;31.88;21.50;;;;;;;;;;10370748;28;20067;-66
2024/02/29 20:02:05;;;;;;;23.15;20.75;;;;;;;;;;10371055;28;20095;-66
2024/02/29 20:07:03;;;;;;;24.13;20.55;;;;;;;;;;10372082;28;20063;-65
2024/02/29 20:12:02;;;;;;;27.83;21.83;;;;;;;;;;10374760;28;20074;-66
2024/02/29 20:17:01;;;;;;;30.58;21.52;;;;;;;;;;10370710;28;20477;-65
2024/02/29 20:22:02;;;;;;;24.75;19.55;;;;;;;;;;10370417;28;20075;-64
2024/02/29 20:27:04;;;;;;;24.90;21.15;;;;;;;;;;10385030;28;20083;-65
2024/02/29 20:32:03;;;;;;;28.38;23.00;;;;;;;;;;10383729;28;20066;-65
2024/02/29 20:37:03;;;;;;;32.47;22.00;;;;;;;;;;10374169;28;20072;-66
2024/02/29 20:42:01;;;;;;;26.73;21.30;;;;;;;;;;10362219;28;20075;-65
2024/02/29 20:47:00;;;;;;;27.33;23.08;;;;;;;;;;10381669;28;20063;-65
2024/02/29 20:51:58;;;;;;;26.15;21.85;;;;;;;;;;10382137;28;20161;-66
2024/02/29 20:56:58;;;;;;;27.63;21.02;;;;;;;;;;10382638;28;20070;-66
2024/02/29 21:01:56;;;;;;;27.20;20.88;;;;;;;;;;10377265;28;20082;-66
2024/02/29 21:06:54;;;;;;;25.60;20.88;;;;;;;;;;10379614;28;20059;-66
2024/02/29 21:11:52;;;;;;;38.03;26.40;;;;;;;;;;10379806;28;20875;-66
2024/02/29 21:16:52;;;;;;;29.30;22.08;;;;;;;;;;10356385;28;20080;-66
2024/02/29 21:21:50;;;;;;;21.52;19.02;;;;;;;;;;10377268;28;20094;-66
2024/02/29 21:26:49;;;;;;;25.02;17.10;;;;;;;;;;10379203;28;20067;-67
2024/02/29 21:31:47;;;;;;;21.02;15.80;;;;;;;;;;10377496;28;20047;-67
2024/02/29 21:36:47;;;;;;;22.83;15.63;;;;;;;;;;10375381;28;20067;-67
2024/02/29 21:41:45;;;;;;;18.73;15.70;;;;;;;;;;10376420;28;20610;-67
2024/02/29 21:46:45;;;;;;;18.35;15.30;;;;;;;;;;10376995;28;20072;-67
2024/02/29 21:51:44;;;;;;;20.23;17.13;;;;;;;;;;10375196;28;20484;-66
2024/02/29 21:56:44;;;;;;;22.33;17.60;;;;;;;;;;10379192;28;20066;-66
2024/02/29 22:01:42;;;;;;;20.88;16.83;;;;;;;;;;10374490;28;20079;-67
2024/02/29 22:06:42;;;;;;;20.25;17.30;;;;;;;;;;10375242;28;20071;-66
2024/02/29 22:11:40;;;;;;;18.70;16.13;;;;;;;;;;10358084;28;20082;-65
2024/02/29 22:16:42;;;;;;;19.98;16.48;;;;;;;;;;10376317;28;20071;-67
2024/02/29 22:21:40;;;;;;;19.13;14.82;;;;;;;;;;10376310;28;20078;-67
2024/02/29 22:26:38;;;;;;;19.75;15.98;;;;;;;;;;10373675;28;20086;-67
2024/02/29 22:31:40;;;;;;;20.15;15.90;;;;;;;;;;10376501;28;20068;-67
2024/02/29 22:36:39;;;;;;;16.88;15.05;;;;;;;;;;10374431;28;20063;-67
2024/02/29 22:41:40;;;;;;;16.02;13.85;;;;;;;;;;10377152;28;20504;-66
2024/02/29 22:46:54;;;;;;;20.67;15.07;;;;;;;;;;10372254;28;20068;-66
2024/02/29 22:51:56;;;;;;;18.35;13.50;;;;;;;;;;10355213;28;20043;-66
2024/02/29 22:56:56;;;;;;;18.35;15.07;;;;;;;;;;10375715;28;20067;-66
2024/02/29 23:01:55;;;;;;;18.77;14.95;;;;;;;;;;10372177;28;20086;-67
2024/02/29 23:06:54;;;;;;;19.10;16.00;;;;;;;;;;10377387;28;20107;-67
2024/02/29 23:11:53;;;;;;;20.30;16.73;;;;;;;;;;10375807;28;20074;-67
2024/02/29 23:16:51;;;;;;;26.48;19.92;;;;;;;;;;10372523;28;20086;-67
2024/02/29 23:21:49;;;;;;;19.65;16.73;;;;;;;;;;10373907;28;20475;-67
2024/02/29 23:26:49;;;;;;;23.75;15.82;;;;;;;;;;10373567;28;20063;-65
2024/02/29 23:31:47;;;;;;;17.60;14.15;;;;;;;;;;10373005;28;20098;-67
2024/02/29 23:36:47;;;;;;;18.55;16.55;;;;;;;;;;10372872;28;20063;-66
2024/02/29 23:41:45;;;;;;;18.67;15.27;;;;;;;;;;10374204;28;20071;-67
2024/02/29 23:46:45;;;;;;;17.13;14.85;;;;;;;;;;10372802;28;20480;-67
2024/02/29 23:51:43;;;;;;;20.15;15.35;;;;;;;;;;10372050;28;20067;-67
2024/02/29 23:56:41;;;;;;;20.50;15.45;;;;;;;;;;10368568;28;20082;-67
